Time;durP1;ratioP1;P1;durP2;ratioP2;P2;SDS_P1;SDS_P2;PMS_P1;PMS_P2;Temp;Humidity;BMP_temperature;BMP_pressure;BME280_temperature;BME280_humidity;BME280_pressure;Samples;Min_cycle;Max_cycle;Signal;HPM_P1;HPM_P2
2021/01/19 00:00:18;;;;;;;35.10;20.00;;;;;;;10.54;66.60;101347.97;4929883;29;20036;-88
2021/01/19 00:02:43;;;;;;;31.58;18.83;;;;;;;10.45;66.59;101346.34;4929754;29;20063;-85
2021/01/19 00:05:09;;;;;;;31.52;11.98;;;;;;;10.40;66.77;101346.06;4928085;29;20450;-84
2021/01/19 00:07:34;;;;;;;29.25;13.80;;;;;;;10.31;66.82;101325.38;4924239;29;20047;-84
2021/01/19 00:10:00;;;;;;;38.17;13.20;;;;;;;10.13;67.10;101321.09;4931397;29;20036;-84
2021/01/19 00:12:25;;;;;;;26.05;11.65;;;;;;;10.14;67.12;101314.63;4932054;29;20080;-85
2021/01/19 00:14:51;;;;;;;36.45;13.07;;;;;;;10.37;66.14;101306.47;4924192;29;20514;-85
2021/01/19 00:17:17;;;;;;;29.15;12.05;;;;;;;10.51;65.70;101312.16;4922711;29;20035;-85
2021/01/19 00:19:42;;;;;;;32.20;14.27;;;;;;;10.19;66.60;101303.22;4928253;29;20036;-83
2021/01/19 00:22:08;;;;;;;26.80;9.25;;;;;;;9.98;67.05;101293.88;4930965;29;20039;-84
2021/01/19 00:24:33;;;;;;;29.67;11.80;;;;;;;10.31;65.92;101290.03;4928081;29;20038;-84
2021/01/19 00:26:59;;;;;;;27.27;10.95;;;;;;;10.19;66.37;101282.31;4926152;29;20096;-84
2021/01/19 00:29:24;;;;;;;27.00;9.85;;;;;;;9.98;66.55;101280.28;4943273;29;20474;-84
2021/01/19 00:31:50;;;;;;;28.17;10.13;;;;;;;10.30;65.29;101261.16;4926728;29;20032;-84
2021/01/19 00:34:16;;;;;;;27.65;9.70;;;;;;;10.32;65.46;101268.09;4929291;29;20035;-83
2021/01/19 00:36:41;;;;;;;32.63;9.75;;;;;;;10.08;65.62;101262.88;4930871;29;20110;-84
2021/01/19 00:39:08;;;;;;;31.83;11.43;;;;;;;10.19;65.56;101244.28;4930800;29;20039;-85
2021/01/19 00:41:34;;;;;;;23.05;9.07;;;;;;;10.31;65.12;101239.22;4930731;29;20122;-84
2021/01/19 00:43:59;;;;;;;28.10;9.48;;;;;;;10.35;64.46;101232.41;4920217;29;20071;-83
2021/01/19 00:46:24;;;;;;;26.50;11.43;;;;;;;10.10;65.04;101218.19;4927738;29;20067;-83
2021/01/19 00:48:50;;;;;;;34.67;13.43;;;;;;;9.92;65.48;101206.81;4925177;29;20036;-82
2021/01/19 00:51:15;;;;;;;22.08;13.50;;;;;;;10.22;64.72;101202.28;4928622;29;20143;-84
2021/01/19 00:53:41;;;;;;;26.63;13.07;;;;;;;10.22;64.96;101199.56;4925926;29;20090;-83
2021/01/19 00:56:06;;;;;;;27.50;13.10;;;;;;;10.37;64.27;101192.28;4927674;29;20111;-84
2021/01/19 00:58:32;;;;;;;27.27;12.48;;;;;;;10.12;64.76;101180.81;4931300;29;20059;-84
2021/01/19 01:00:57;;;;;;;26.30;9.52;;;;;;;10.30;64.25;101183.19;4919704;29;20454;-84
2021/01/19 01:03:22;;;;;;;19.15;10.40;;;;;;;10.19;64.69;101175.47;4926306;29;20039;-84
2021/01/19 01:05:50;;;;;;;23.20;14.70;;;;;;;10.48;64.02;101166.50;4925184;29;20497;-84
2021/01/19 01:08:16;;;;;;;27.02;10.25;;;;;;;10.31;64.36;101163.09;4942412;28;20063;-82
2021/01/19 01:10:41;;;;;;;21.88;9.45;;;;;;;10.36;64.64;101163.44;4926067;29;20550;-84
2021/01/19 01:13:07;;;;;;;25.50;15.02;;;;;;;10.20;65.21;101150.81;4929130;29;20047;-85
2021/01/19 01:15:35;;;;;;;24.88;10.45;;;;;;;10.31;64.83;101152.22;4928819;29;20039;-84
2021/01/19 01:18:00;;;;;;;17.00;8.13;;;;;;;10.20;65.38;101137.22;4927430;29;20777;-85
2021/01/19 01:20:26;;;;;;;15.50;10.32;;;;;;;10.26;65.24;101137.53;4925325;29;20040;-86
2021/01/19 01:22:52;;;;;;;18.70;8.52;;;;;;;10.18;65.73;101133.84;4927126;29;20039;-83
2021/01/19 01:25:18;;;;;;;23.60;11.10;;;;;;;10.13;66.02;101124.56;4929338;29;20051;-85
2021/01/19 01:27:45;;;;;;;26.73;13.15;;;;;;;10.10;66.25;101116.78;4928239;29;20044;-84
2021/01/19 01:30:13;;;;;;;19.55;9.57;;;;;;;10.08;66.29;101113.41;4925522;29;20534;-87
2021/01/19 01:32:50;;;;;;;20.58;9.68;;;;;;;10.13;66.27;101111.84;4910074;29;20048;-87
2021/01/19 01:35:17;;;;;;;20.02;9.65;;;;;;;9.97;66.33;101104.69;4928802;29;20110;-83
2021/01/19 01:37:47;;;;;;;19.10;13.13;;;;;;;9.99;66.53;101096.34;4924237;29;20134;-82
2021/01/19 01:40:17;;;;;;;17.45;9.57;;;;;;;9.94;66.58;101094.19;4929563;29;20501;-82
2021/01/19 01:42:43;;;;;;;24.35;15.27;;;;;;;9.88;66.42;101081.34;4930658;29;20470;-84
2021/01/19 01:45:09;;;;;;;24.38;12.43;;;;;;;9.82;66.77;101079.38;4926545;29;20028;-82
2021/01/19 01:47:34;;;;;;;18.55;12.55;;;;;;;9.90;66.23;101065.72;4922175;29;20043;-85
2021/01/19 01:50:00;;;;;;;18.23;12.23;;;;;;;10.03;66.07;101059.63;4924197;29;20040;-83
2021/01/19 01:52:28;;;;;;;21.38;13.75;;;;;;;9.80;66.44;101054.28;4923610;29;20054;-84
2021/01/19 01:54:54;;;;;;;16.35;13.52;;;;;;;9.83;66.52;101059.34;4923711;29;20043;-83
2021/01/19 01:57:20;;;;;;;17.52;13.57;;;;;;;9.51;67.37;101055.91;4928414;29;20039;-86
2021/01/19 01:59:50;;;;;;;20.02;11.60;;;;;;;9.72;66.89;101043.53;4928506;29;20038;-82
2021/01/19 02:02:16;;;;;;;22.33;13.07;;;;;;;9.75;66.36;101041.25;4928782;29;20019;-86
2021/01/19 02:04:42;;;;;;;16.42;9.68;;;;;;;9.89;66.15;101033.31;4928424;29;20035;-84
2021/01/19 02:07:21;;;;;;;15.13;9.18;;;;;;;9.84;66.35;101025.72;4927256;29;20059;-86
2021/01/19 02:09:55;;;;;;;18.77;14.13;;;;;;;9.57;67.14;101019.88;4922302;29;20584;-86
2021/01/19 02:12:29;;;;;;;14.82;10.70;;;;;;;9.64;66.97;101023.56;4927617;29;20035;-83
2021/01/19 02:15:05;;;;;;;19.48;11.90;;;;;;;9.80;66.62;101003.50;4929476;29;20114;-84
2021/01/19 02:17:43;;;;;;;15.90;11.70;;;;;;;9.73;66.56;100994.44;4927348;29;20062;-84
2021/01/19 02:20:36;;;;;;;15.40;10.45;;;;;;;10.03;65.89;100983.56;4923086;29;20494;-83
2021/01/19 02:23:22;;;;;;;21.85;12.52;;;;;;;9.80;66.64;100975.53;4929924;29;20067;-83
2021/01/19 02:26:22;;;;;;;22.95;14.00;;;;;;;9.64;66.72;100960.28;4928031;29;20036;-84
2021/01/19 02:28:52;;;;;;;23.52;17.73;;;;;;;9.77;66.82;100956.88;4925263;29;20210;-84
2021/01/19 02:31:29;;;;;;;22.17;19.73;;;;;;;9.80;66.96;100951.06;4930825;29;20067;-83
2021/01/19 02:34:20;;;;;;;19.88;16.23;;;;;;;9.92;66.62;100943.28;4927913;29;20051;-84
2021/01/19 02:36:54;;;;;;;17.55;15.73;;;;;;;9.81;66.72;100937.31;4921637;29;20043;-85
2021/01/19 02:39:39;;;;;;;19.35;15.05;;;;;;;9.93;66.60;100917.78;4928656;29;20036;-83
2021/01/19 02:42:09;;;;;;;19.17;17.42;;;;;;;9.93;66.64;100915.94;4928554;29;20406;-82
2021/01/19 02:44:39;;;;;;;15.95;14.35;;;;;;;9.92;66.75;100916.97;4928627;29;20126;-84
2021/01/19 02:47:04;;;;;;;20.90;15.93;;;;;;;9.78;67.33;100893.41;4941295;29;20035;-83
2021/01/19 02:49:30;;;;;;;16.20;14.60;;;;;;;9.85;67.24;100900.59;4926634;29;20048;-83
2021/01/19 02:51:58;;;;;;;18.48;12.90;;;;;;;9.80;67.23;100891.31;4928121;29;20036;-83
2021/01/19 02:54:25;;;;;;;17.20;10.60;;;;;;;9.97;67.07;100887.34;4924487;29;20118;-84
2021/01/19 02:56:59;;;;;;;19.58;14.48;;;;;;;9.69;68.01;100884.50;4930509;29;20030;-83
2021/01/19 02:59:58;;;;;;;11.98;10.73;;;;;;;9.71;67.52;100859.88;4923433;29;20050;-84
2021/01/19 03:02:29;;;;;;;18.13;14.25;;;;;;;9.79;67.29;100849.75;4925426;29;20066;-82
2021/01/19 03:04:58;;;;;;;17.37;15.53;;;;;;;10.00;66.93;100832.63;4927778;29;20039;-84
2021/01/19 03:07:26;;;;;;;20.00;15.73;;;;;;;9.69;67.95;100841.06;4928520;29;20503;-86
2021/01/19 03:09:52;;;;;;;17.60;15.85;;;;;;;9.62;68.02;100840.13;4927142;29;20091;-83
2021/01/19 03:12:19;;;;;;;16.08;14.40;;;;;;;9.66;67.72;100836.00;4930333;29;20106;-84
2021/01/19 03:14:44;;;;;;;12.90;11.07;;;;;;;9.78;67.32;100831.75;4924372;29;20054;-88
2021/01/19 03:17:11;;;;;;;15.95;13.32;;;;;;;9.65;68.05;100818.88;4925155;29;20039;-85
2021/01/19 03:19:39;;;;;;;19.35;17.80;;;;;;;9.54;68.34;100808.50;4925298;29;20099;-85
2021/01/19 03:22:05;;;;;;;13.63;12.35;;;;;;;9.68;68.15;100813.06;4926789;29;20032;-84
2021/01/19 03:24:30;;;;;;;15.05;13.48;;;;;;;9.57;68.03;100821.69;4928109;29;20042;-83
2021/01/19 03:26:56;;;;;;;20.60;18.75;;;;;;;9.67;68.14;100815.97;4926915;29;20040;-85
2021/01/19 03:29:21;;;;;;;19.75;17.75;;;;;;;9.55;68.30;100806.63;4930359;29;20043;-86
2021/01/19 03:31:47;;;;;;;24.38;22.35;;;;;;;9.55;68.21;100791.19;4929102;29;20171;-82
2021/01/19 03:34:12;;;;;;;14.55;13.13;;;;;;;9.54;68.45;100791.38;4932150;29;20047;-87
2021/01/19 03:36:38;;;;;;;22.95;21.20;;;;;;;9.53;68.51;100789.69;4932022;29;20043;-85
2021/01/19 03:39:04;;;;;;;17.77;16.20;;;;;;;9.65;68.16;100780.88;4931915;29;20035;-84
2021/01/19 03:41:29;;;;;;;21.92;18.75;;;;;;;9.66;68.08;100777.09;4926946;29;20482;-84
2021/01/19 03:43:55;;;;;;;19.48;17.48;;;;;;;9.64;68.21;100768.31;4930459;29;20102;-83
2021/01/19 03:46:20;;;;;;;21.58;19.67;;;;;;;9.48;68.70;100766.69;4932018;29;20051;-86
2021/01/19 03:48:46;;;;;;;16.67;14.45;;;;;;;9.45;69.05;100766.19;4930574;29;20048;-86
2021/01/19 03:51:11;;;;;;;22.20;18.90;;;;;;;9.62;68.74;100764.09;4930410;29;20095;-87
2021/01/19 03:53:37;;;;;;;21.52;19.30;;;;;;;9.65;68.52;100759.16;4928869;29;20035;-85
2021/01/19 03:56:03;;;;;;;17.45;15.85;;;;;;;9.71;68.20;100751.25;4933013;29;20039;-85
2021/01/19 03:58:29;;;;;;;21.33;19.42;;;;;;;9.71;68.54;100757.50;4930438;29;20058;-86
2021/01/19 04:00:54;;;;;;;21.88;19.70;;;;;;;9.78;68.39;100741.31;4929799;29;20039;-85
2021/01/19 04:03:19;;;;;;;23.52;21.45;;;;;;;9.66;68.64;100736.38;4929190;29;20071;-84
2021/01/19 04:05:45;;;;;;;23.15;21.25;;;;;;;9.65;69.14;100734.72;4934131;29;20032;-84
2021/01/19 04:08:10;;;;;;;16.50;15.00;;;;;;;9.64;68.87;100724.88;4931050;29;20039;-86
2021/01/19 04:10:36;;;;;;;16.67;15.25;;;;;;;9.76;68.54;100710.75;4929660;29;20031;-85
2021/01/19 04:13:01;;;;;;;18.65;17.08;;;;;;;9.75;68.84;100704.50;4927178;29;20027;-88
2021/01/19 04:15:27;;;;;;;20.02;18.05;;;;;;;9.74;68.96;100707.41;4929779;29;20538;-85
2021/01/19 04:17:52;;;;;;;18.40;16.90;;;;;;;9.86;68.60;100690.38;4925367;29;20051;-83
2021/01/19 04:20:17;;;;;;;17.13;15.77;;;;;;;9.65;68.93;100693.13;4898516;29;20031;-86
2021/01/19 04:22:43;;;;;;;19.20;17.60;;;;;;;9.85;68.62;100694.16;4945742;29;20071;-85
2021/01/19 04:25:09;;;;;;;17.35;15.95;;;;;;;9.83;68.55;100684.53;4929541;29;20603;-83
2021/01/19 04:27:34;;;;;;;13.77;12.65;;;;;;;10.08;67.98;100684.09;4928725;29;20130;-85
2021/01/19 04:30:04;;;;;;;12.43;11.35;;;;;;;9.65;69.25;100666.81;4925440;29;20490;-87
2021/01/19 04:32:29;;;;;;;14.82;13.48;;;;;;;9.96;68.38;100664.75;4925969;29;20036;-82
2021/01/19 04:34:55;;;;;;;13.10;11.95;;;;;;;9.89;68.80;100651.13;4926226;29;20075;-86
2021/01/19 04:37:21;;;;;;;20.42;18.75;;;;;;;9.91;68.20;100654.50;4932088;29;20391;-85
2021/01/19 04:39:46;;;;;;;14.98;13.57;;;;;;;9.69;69.42;100656.41;4931094;29;20067;-84
2021/01/19 04:42:18;;;;;;;13.27;12.27;;;;;;;10.10;67.83;100650.25;4928450;29;20051;-84
2021/01/19 04:44:43;;;;;;;13.10;11.90;;;;;;;9.96;68.24;100640.31;4929338;29;20102;-84
2021/01/19 04:47:09;;;;;;;16.27;14.57;;;;;;;10.19;67.79;100640.06;4927408;29;20475;-84
2021/01/19 04:49:35;;;;;;;12.10;11.10;;;;;;;10.00;68.40;100619.88;4928164;29;20043;-83
2021/01/19 04:52:03;;;;;;;13.05;11.75;;;;;;;9.73;69.34;100622.41;4913789;29;20040;-83
2021/01/19 04:54:38;;;;;;;11.27;10.18;;;;;;;9.80;69.25;100611.59;4925382;29;20734;-84
2021/01/19 04:57:13;;;;;;;12.65;11.38;;;;;;;9.78;69.68;100605.50;4929265;29;20028;-85
2021/01/19 04:59:51;;;;;;;11.65;10.55;;;;;;;9.84;69.51;100594.69;4925941;29;20040;-87
2021/01/19 05:02:35;;;;;;;10.50;9.52;;;;;;;9.90;69.52;100584.91;4927431;29;20058;-84
2021/01/19 05:05:22;;;;;;;11.05;10.07;;;;;;;10.08;68.99;100561.81;4930148;29;20508;-86
2021/01/19 05:08:23;;;;;;;9.63;8.80;;;;;;;9.85;69.95;100569.22;4922594;29;20035;-86
2021/01/19 05:11:00;;;;;;;14.10;12.82;;;;;;;9.92;69.72;100568.44;4921201;29;20036;-87
2021/01/19 05:13:50;;;;;;;14.57;13.10;;;;;;;9.97;70.05;100552.34;4927427;29;20122;-82
2021/01/19 05:16:18;;;;;;;13.93;12.65;;;;;;;10.07;69.60;100552.00;4921883;29;20036;-83
2021/01/19 05:18:44;;;;;;;16.08;14.68;;;;;;;9.87;70.61;100533.72;4927772;29;20799;-85
2021/01/19 05:21:10;;;;;;;9.80;8.80;;;;;;;10.14;69.58;100525.69;4928846;29;20438;-84
2021/01/19 05:23:35;;;;;;;10.82;9.52;;;;;;;10.14;69.60;100517.56;4925721;29;20063;-82
2021/01/19 05:26:03;;;;;;;10.10;9.10;;;;;;;10.06;69.93;100528.59;4930296;29;20035;-85
2021/01/19 05:28:30;;;;;;;12.82;11.63;;;;;;;10.30;69.38;100522.66;4929777;29;20032;-83
2021/01/19 05:30:55;;;;;;;11.85;10.75;;;;;;;9.96;70.79;100493.63;4929872;29;20047;-84
2021/01/19 05:33:21;;;;;;;11.93;10.82;;;;;;;10.38;69.29;100498.03;4921178;29;20040;-87
2021/01/19 05:35:46;;;;;;;11.70;10.75;;;;;;;10.30;69.42;100498.19;4929115;29;20059;-83
2021/01/19 05:38:11;;;;;;;16.10;12.85;;;;;;;10.20;70.03;100495.00;4927314;29;20032;-84
2021/01/19 05:40:46;;;;;;;14.77;13.23;;;;;;;10.19;69.82;100479.72;4923115;29;20039;-84
2021/01/19 05:43:12;;;;;;;14.63;13.15;;;;;;;10.30;69.16;100471.00;4930766;29;20139;-86
2021/01/19 05:45:49;;;;;;;11.15;10.10;;;;;;;10.53;68.98;100461.69;4927416;29;20143;-85
2021/01/19 05:48:16;;;;;;;11.90;10.65;;;;;;;10.40;69.50;100465.22;4931900;29;20035;-85
2021/01/19 05:50:41;;;;;;;11.77;9.85;;;;;;;10.48;68.97;100450.59;4927731;29;20063;-85
2021/01/19 05:53:14;;;;;;;16.83;14.13;;;;;;;10.24;70.23;100439.22;4927655;29;20036;-85
2021/01/19 05:55:43;;;;;;;12.45;11.27;;;;;;;10.38;69.50;100435.50;4925242;29;20059;-84
2021/01/19 05:58:16;;;;;;;10.40;9.43;;;;;;;10.30;69.64;100415.78;4927505;29;20651;-85
2021/01/19 06:00:42;;;;;;;13.35;11.23;;;;;;;10.51;69.27;100409.41;4925660;29;20027;-85
2021/01/19 06:03:17;;;;;;;8.10;6.82;;;;;;;10.55;69.05;100405.19;4929364;29;20043;-83
2021/01/19 06:05:46;;;;;;;12.52;8.98;;;;;;;10.57;69.09;100403.13;4930578;29;20040;-88
2021/01/19 06:08:12;;;;;;;9.38;8.38;;;;;;;10.73;68.44;100402.69;4928005;29;20039;-86
2021/01/19 06:10:38;;;;;;;14.57;11.23;;;;;;;10.53;68.95;100382.81;4927222;29;20487;-86
2021/01/19 06:13:13;;;;;;;10.48;9.55;;;;;;;10.41;69.19;100379.03;4928043;29;20094;-86
2021/01/19 06:15:40;;;;;;;11.18;10.07;;;;;;;10.51;69.27;100387.66;4930029;29;20066;-86
2021/01/19 06:18:06;;;;;;;8.98;7.28;;;;;;;10.51;69.56;100379.50;4937470;29;20039;-83
2021/01/19 06:20:41;;;;;;;10.70;9.70;;;;;;;10.36;69.78;100372.38;4927418;29;20091;-83
2021/01/19 06:23:09;;;;;;;9.60;8.45;;;;;;;10.49;69.50;100362.56;4926023;29;20118;-86
2021/01/19 06:25:34;;;;;;;8.38;7.57;;;;;;;10.33;70.30;100353.75;4925339;29;20036;-85
2021/01/19 06:28:10;;;;;;;9.70;8.80;;;;;;;10.51;69.65;100352.31;4924729;29;20085;-84
2021/01/19 06:30:35;;;;;;;8.70;7.90;;;;;;;10.52;69.21;100324.91;4924051;29;20032;-84
2021/01/19 06:33:02;;;;;;;13.25;12.20;;;;;;;10.65;69.21;100345.81;4925946;29;20442;-83
2021/01/19 06:35:29;;;;;;;16.23;11.88;;;;;;;10.45;70.23;100325.94;4928449;29;20413;-84
2021/01/19 06:37:54;;;;;;;10.15;8.80;;;;;;;10.38;70.34;100317.78;4924254;29;20114;-83
2021/01/19 06:40:22;;;;;;;9.35;8.45;;;;;;;10.44;69.85;100313.38;4942956;28;20762;-83
2021/01/19 06:43:00;;;;;;;12.13;8.13;;;;;;;10.32;70.42;100291.41;4928014;29;20093;-81
2021/01/19 06:45:26;;;;;;;10.93;7.30;;;;;;;10.53;69.84;100295.81;4925730;29;20032;-85
2021/01/19 06:47:53;;;;;;;8.98;6.53;;;;;;;10.48;69.68;100290.19;4928967;29;20098;-83
2021/01/19 06:50:23;;;;;;;10.15;5.78;;;;;;;10.64;70.47;100291.63;4925918;29;20028;-84
2021/01/19 06:53:23;;;;;;;14.60;8.13;;;;;;;10.65;69.93;100271.56;4925761;29;20378;-84
2021/01/19 06:55:57;;;;;;;12.90;8.38;;;;;;;10.62;70.50;100266.53;4925455;29;20418;-83
2021/01/19 06:58:32;;;;;;;17.80;8.60;;;;;;;10.66;70.51;100263.19;4921135;29;20048;-87
2021/01/19 07:01:00;;;;;;;18.13;10.50;;;;;;;10.71;70.37;100255.22;4926710;29;20063;-85
2021/01/19 07:03:26;;;;;;;16.15;7.32;;;;;;;10.79;70.57;100237.03;4925722;29;20044;-83
2021/01/19 07:06:01;;;;;;;14.40;5.85;;;;;;;10.61;71.03;100238.50;4928747;29;20035;-83
2021/01/19 07:09:01;;;;;;;19.73;9.52;;;;;;;10.61;71.53;100237.66;4932311;29;20031;-86
2021/01/19 07:11:35;;;;;;;15.18;7.60;;;;;;;10.57;71.05;100220.94;4925710;29;20514;-84
2021/01/19 07:14:11;;;;;;;17.95;7.28;;;;;;;10.70;71.30;100209.19;4929418;29;20047;-85
2021/01/19 07:16:56;;;;;;;22.25;7.22;;;;;;;10.62;71.20;100199.38;4926674;29;20031;-88
2021/01/19 07:19:44;;;;;;;17.90;6.78;;;;;;;10.59;71.44;100207.16;4929523;29;20043;-86
2021/01/19 07:22:40;;;;;;;27.08;13.10;;;;;;;10.65;71.16;100207.13;4930235;29;20102;-84
2021/01/19 07:25:06;;;;;;;20.65;8.07;;;;;;;10.80;71.00;100201.44;4925465;29;20151;-84
2021/01/19 07:27:31;;;;;;;25.55;8.43;;;;;;;10.92;70.71;100215.19;4929607;29;20034;-84
2021/01/19 07:29:57;;;;;;;26.27;9.73;;;;;;;10.95;70.40;100203.88;4929282;29;20551;-86
2021/01/19 07:32:29;;;;;;;23.63;7.38;;;;;;;10.73;71.29;100208.78;4923435;29;20502;-85
2021/01/19 07:34:55;;;;;;;18.40;7.18;;;;;;;10.80;71.52;100219.63;4929644;29;20078;-84
2021/01/19 07:37:31;;;;;;;18.73;10.15;;;;;;;10.82;70.83;100196.63;4930357;29;20458;-87
2021/01/19 07:40:00;;;;;;;20.25;8.43;;;;;;;10.72;71.48;100194.34;4926682;29;20031;-86
2021/01/19 07:42:26;;;;;;;21.23;8.95;;;;;;;11.07;70.49;100193.19;4926500;29;20043;-84
2021/01/19 07:45:01;;;;;;;24.02;7.68;;;;;;;10.68;71.50;100176.78;4927807;29;20036;-84
2021/01/19 07:47:43;;;;;;;29.00;9.25;;;;;;;10.93;71.50;100197.84;4919664;29;20127;-85
2021/01/19 07:50:13;;;;;;;31.30;9.68;;;;;;;10.99;71.61;100177.94;4911493;29;20035;-86
2021/01/19 07:52:44;;;;;;;26.07;12.83;;;;;;;11.16;71.32;100182.88;4931067;29;20023;-87
2021/01/19 07:55:12;;;;;;;27.02;9.73;;;;;;;11.10;71.91;100193.56;4926484;29;20427;-85
2021/01/19 07:57:38;;;;;;;21.75;9.15;;;;;;;11.49;70.83;100199.03;4924208;29;20039;-87
2021/01/19 08:00:06;;;;;;;28.05;10.55;;;;;;;11.44;70.85;100187.97;4922353;29;20774;-83
2021/01/19 08:02:31;;;;;;;32.22;12.68;;;;;;;11.23;71.48;100191.84;4911501;29;20031;-83
2021/01/19 08:05:06;;;;;;;31.30;9.88;;;;;;;11.48;70.76;100191.94;4928448;29;20581;-85
2021/01/19 08:07:38;;;;;;;30.42;10.38;;;;;;;11.40;70.84;100198.47;4927997;29;20035;-86
2021/01/19 08:10:25;;;;;;;28.45;8.20;;;;;;;11.61;70.35;100193.72;4929631;29;20048;-85
2021/01/19 08:12:54;;;;;;;33.47;8.60;;;;;;;11.58;70.18;100186.81;4926401;29;20036;-84
2021/01/19 08:15:28;;;;;;;29.40;7.72;;;;;;;11.57;70.99;100197.94;4922550;29;20031;-85
2021/01/19 08:17:55;;;;;;;30.02;7.82;;;;;;;11.53;70.62;100188.56;4929164;29;20482;-87
2021/01/19 08:20:32;;;;;;;23.15;8.38;;;;;;;11.58;71.29;100191.44;4927879;29;20047;-86
2021/01/19 08:23:24;;;;;;;27.80;8.35;;;;;;;11.97;70.16;100205.88;4928900;29;20314;-86
2021/01/19 08:25:49;;;;;;;37.30;10.52;;;;;;;12.13;69.15;100188.16;4925819;29;20038;-86
2021/01/19 08:28:15;;;;;;;31.77;8.70;;;;;;;11.90;70.15;100175.09;4944043;28;20042;-86
2021/01/19 08:30:40;;;;;;;47.85;16.33;;;;;;;11.70;71.48;100176.06;4927304;29;20174;-85
2021/01/19 08:33:06;;;;;;;54.65;18.38;;;;;;;11.88;71.08;100186.22;4910325;29;20513;-86
2021/01/19 08:35:32;;;;;;;48.40;14.98;;;;;;;12.02;70.56;100180.66;4927877;29;20082;-86
2021/01/19 08:38:00;;;;;;;47.78;13.02;;;;;;;12.17;70.37;100173.00;4926996;29;20614;-88
2021/01/19 08:40:31;;;;;;;49.83;16.40;;;;;;;12.12;70.64;100181.00;4928542;29;20030;-81
2021/01/19 08:42:57;;;;;;;61.63;20.45;;;;;;;12.31;70.92;100166.38;4922088;29;20040;-87
2021/01/19 08:45:31;;;;;;;61.67;16.90;;;;;;;12.15;71.66;100172.41;4922690;29;20043;-85
2021/01/19 08:47:58;;;;;;;49.40;13.85;;;;;;;12.47;71.65;100167.69;4925043;29;20067;-86
2021/01/19 08:50:25;;;;;;;69.90;12.48;;;;;;;12.54;71.15;100165.72;4926160;29;20028;-84
2021/01/19 08:52:51;;;;;;;56.63;13.65;;;;;;;12.65;71.32;100166.88;4925984;29;20036;-84
2021/01/19 08:55:19;;;;;;;51.53;10.90;;;;;;;12.61;72.27;100181.19;4927034;29;20395;-90
2021/01/19 08:57:49;;;;;;;37.45;10.60;;;;;;;12.44;72.83;100189.13;4926019;29;20103;-85
2021/01/19 09:00:26;;;;;;;49.20;11.98;;;;;;;12.62;72.22;100191.88;4927095;29;20044;-85
2021/01/19 09:02:58;;;;;;;49.58;10.65;;;;;;;12.68;71.98;100181.94;4927517;29;20496;-87
2021/01/19 09:05:29;;;;;;;51.08;9.75;;;;;;;12.67;72.13;100185.75;4929091;29;20058;-84
2021/01/19 09:07:56;;;;;;;38.95;9.43;;;;;;;12.65;72.49;100193.28;4929113;29;20082;-86
2021/01/19 09:10:26;;;;;;;44.13;9.75;;;;;;;12.80;71.86;100191.03;4924156;29;20036;-88
2021/01/19 09:12:53;;;;;;;35.08;8.80;;;;;;;13.00;70.60;100192.69;4925544;29;20040;-87
2021/01/19 09:15:19;;;;;;;31.23;7.55;;;;;;;13.01;71.13;100217.03;4922162;29;20040;-89
2021/01/19 09:17:52;;;;;;;34.03;9.63;;;;;;;13.08;70.71;100209.63;4926696;29;20087;-87
2021/01/19 09:20:18;;;;;;;32.42;6.82;;;;;;;13.10;70.69;100214.84;4920692;29;20041;-86
2021/01/19 09:22:43;;;;;;;36.80;8.38;;;;;;;12.72;72.17;100216.72;4928443;29;20061;-85
2021/01/19 09:25:10;;;;;;;37.60;8.02;;;;;;;12.89;71.64;100216.13;4908498;29;20082;-86
2021/01/19 09:27:36;;;;;;;38.03;8.52;;;;;;;12.84;71.46;100216.81;4929319;29;20536;-87
2021/01/19 09:30:09;;;;;;;27.88;7.40;;;;;;;13.06;71.29;100230.00;4929341;29;20063;-85
2021/01/19 09:32:39;;;;;;;33.55;6.95;;;;;;;12.96;70.89;100224.22;4925824;29;20043;-86
2021/01/19 09:35:06;;;;;;;28.87;6.03;;;;;;;13.10;70.63;100233.09;4929541;29;20062;-85
2021/01/19 09:37:32;;;;;;;30.50;7.03;;;;;;;13.15;70.63;100241.47;4926532;29;20042;-85
2021/01/19 09:39:57;;;;;;;33.00;9.82;;;;;;;13.15;70.25;100242.28;4928055;29;20395;-85
2021/01/19 09:42:23;;;;;;;37.17;9.40;;;;;;;12.83;71.22;100242.41;4921392;29;20090;-84
2021/01/19 09:44:49;;;;;;;34.88;8.60;;;;;;;12.93;70.94;100247.38;4927562;29;20086;-84
2021/01/19 09:47:16;;;;;;;30.92;9.23;;;;;;;12.73;71.28;100242.13;4932343;29;20024;-89
2021/01/19 09:49:42;;;;;;;45.00;7.85;;;;;;;12.89;70.83;100238.78;4927277;29;20055;-88
2021/01/19 09:52:13;;;;;;;45.08;9.05;;;;;;;13.08;70.38;100247.84;4925316;29;20036;-86
2021/01/19 09:54:39;;;;;;;37.17;8.10;;;;;;;13.23;70.21;100247.44;4925288;29;20431;-86
2021/01/19 09:57:07;;;;;;;36.85;6.68;;;;;;;13.03;70.64;100258.56;4922324;29;20396;-87
2021/01/19 09:59:33;;;;;;;37.90;8.77;;;;;;;13.07;70.80;100250.78;4924203;29;20066;-87
2021/01/19 10:01:59;;;;;;;40.15;9.05;;;;;;;13.14;70.07;100275.28;4923226;29;20032;-89
2021/01/19 10:04:25;;;;;;;33.15;9.20;;;;;;;13.22;70.36;100272.22;4938710;29;20415;-86
2021/01/19 10:07:05;;;;;;;35.70;8.38;;;;;;;13.33;69.91;100284.28;4922614;29;20036;-86
2021/01/19 10:09:31;;;;;;;36.33;8.23;;;;;;;13.27;70.26;100266.94;4923656;29;20043;-86
2021/01/19 10:12:07;;;;;;;23.33;5.18;;;;;;;13.20;70.43;100274.38;4926018;29;20040;-85
2021/01/19 10:14:38;;;;;;;26.95;5.65;;;;;;;13.15;70.87;100283.25;4923136;29;20020;-85
2021/01/19 10:17:04;;;;;;;24.48;5.65;;;;;;;13.15;70.56;100285.97;4922739;29;20039;-85
2021/01/19 10:19:32;;;;;;;25.42;5.78;;;;;;;13.23;70.14;100285.66;4924085;29;20032;-87
2021/01/19 10:22:02;;;;;;;25.25;6.93;;;;;;;13.30;70.08;100301.13;4925897;29;20038;-85
2021/01/19 10:24:28;;;;;;;29.57;6.87;;;;;;;13.28;69.52;100298.63;4921948;29;20613;-87
2021/01/19 10:27:17;;;;;;;31.80;5.72;;;;;;;13.41;69.27;100303.16;4923503;29;20058;-85
2021/01/19 10:29:44;;;;;;;33.35;5.65;;;;;;;13.20;69.57;100297.03;4924130;29;20118;-87
2021/01/19 10:32:12;;;;;;;31.52;5.75;;;;;;;13.22;69.55;100294.94;4922829;29;20036;-88
2021/01/19 10:34:42;;;;;;;27.63;6.10;;;;;;;13.12;69.97;100296.53;4926562;29;20036;-86
2021/01/19 10:37:09;;;;;;;29.27;6.35;;;;;;;13.40;68.97;100293.28;4924257;29;20119;-87
2021/01/19 10:39:49;;;;;;;34.75;6.22;;;;;;;13.19;69.43;100280.88;4924601;29;20064;-88
2021/01/19 10:42:32;;;;;;;31.05;6.15;;;;;;;13.18;69.67;100295.63;4923559;29;20028;-88
2021/01/19 10:45:05;;;;;;;31.25;7.70;;;;;;;13.26;68.88;100300.75;4925447;29;20046;-88
2021/01/19 10:47:41;;;;;;;29.02;5.63;;;;;;;13.30;68.83;100299.25;4926788;29;20438;-87
2021/01/19 10:50:11;;;;;;;24.42;4.68;;;;;;;13.06;69.45;100290.88;4923874;29;20043;-86
2021/01/19 10:52:36;;;;;;;22.52;5.75;;;;;;;13.26;68.84;100298.84;4916425;29;21158;-88
2021/01/19 10:55:02;;;;;;;20.42;5.00;;;;;;;13.28;68.84;100292.34;4920915;29;20040;-87
2021/01/19 10:57:27;;;;;;;22.27;5.43;;;;;;;13.18;69.00;100301.91;4925243;29;20045;-88
2021/01/19 10:59:53;;;;;;;16.48;5.18;;;;;;;13.25;68.96;100302.66;4924553;29;20080;-86
2021/01/19 11:02:18;;;;;;;28.35;5.15;;;;;;;13.34;68.67;100303.22;4908298;29;20549;-87
2021/01/19 11:04:44;;;;;;;15.90;3.83;;;;;;;13.18;68.96;100299.16;4937201;29;20040;-85
2021/01/19 11:07:09;;;;;;;15.18;3.83;;;;;;;13.38;68.29;100309.91;4923716;29;20032;-87
2021/01/19 11:09:35;;;;;;;18.52;4.63;;;;;;;13.47;68.31;100301.38;4925956;29;20039;-85
2021/01/19 11:12:00;;;;;;;28.67;5.63;;;;;;;13.31;68.49;100298.16;4922116;29;20055;-86
2021/01/19 11:14:25;;;;;;;16.40;5.18;;;;;;;13.44;68.48;100305.44;4925309;29;20055;-85
2021/01/19 11:16:51;;;;;;;16.73;5.22;;;;;;;13.46;68.23;100311.47;4924988;29;20624;-85
2021/01/19 11:19:16;;;;;;;8.93;2.35;;;;;;;13.35;68.70;100295.88;4926158;29;20035;-88
2021/01/19 11:21:45;;;;;;;11.30;4.32;;;;;;;13.46;68.73;100316.94;4926399;29;20403;-85
2021/01/19 11:24:12;;;;;;;10.45;3.10;;;;;;;13.32;68.94;100304.50;4922194;29;20447;-84
2021/01/19 11:26:40;;;;;;;8.95;3.13;;;;;;;13.37;69.08;100312.84;4924240;29;20036;-85